Muzaffarabad Weather



Muzaffarabad's Current Weather

Temprature 23.41o clear sky

clear sky

Rain: 0 %

Min Temprature23.41o
Max Temprature23.41o
Humidity64
Wind Speed0.62 m/h
Sun Rise05:56:39
Sun Set17:58:28
Current Time: 26-Sep-2022 08:20:07
Lat/Lon: 34.37, 73.4711




Muzaffarabad's Geo Location



Muzaffarabad's Weather Forecast

Time Overall Temp Min Temp Max Temp Humidity Wind Speed Rain
26-Sep-2022 (Mon)
11:00:00 clear sky 24.840 24.840 27.690 60 2.03 m/h 0 %
14:00:00 clear sky 26.840 26.840 28.550 56 2.1 m/h 0 %
17:00:00 clear sky 26.410 26.410 26.410 68 1.32 m/h 0 %
20:00:00 clear sky 21.620 21.620 21.620 81 1.42 m/h 0 %
23:00:00 clear sky 20.930 20.930 20.930 78 1.54 m/h 0 %
27-Sep-2022 (Tue)
02:00:00 clear sky 20.300 20.300 20.300 75 1.62 m/h 0 %
05:00:00 clear sky 19.760 19.760 19.760 71 1.67 m/h 0 %
08:00:00 clear sky 24.390 24.390 24.390 60 0.36 m/h 0 %
11:00:00 clear sky 28.290 28.290 28.290 56 2.06 m/h 0 %
14:00:00 clear sky 29.220 29.220 29.220 55 2.28 m/h 0 %
17:00:00 light rain 26.350 26.350 26.350 72 1.71 m/h 15 %
20:00:00 few clouds 22.390 22.390 22.390 84 1.27 m/h 0 %
23:00:00 light rain 21.000 21.000 21.000 84 1.56 m/h 23 %
28-Sep-2022 (Wed)
02:00:00 clear sky 20.160 20.160 20.160 82 1.85 m/h 0 %
05:00:00 clear sky 19.630 19.630 19.630 79 1.88 m/h 0 %
08:00:00 clear sky 24.040 24.040 24.040 67 0.56 m/h 0 %
11:00:00 clear sky 28.370 28.370 28.370 55 2.03 m/h 0 %
14:00:00 light rain 28.820 28.820 28.820 52 2.37 m/h 32 %
17:00:00 scattered clouds 26.650 26.650 26.650 61 1.59 m/h 0 %
20:00:00 light rain 21.500 21.500 21.500 79 1.73 m/h 11 %
23:00:00 light rain 20.020 20.020 20.020 80 2.27 m/h 15 %
29-Sep-2022 (Thu)
02:00:00 few clouds 19.270 19.270 19.270 75 2.39 m/h 0 %
05:00:00 scattered clouds 18.500 18.500 18.500 66 2.51 m/h 0 %
08:00:00 clear sky 23.800 23.800 23.800 49 1.07 m/h 0 %
11:00:00 clear sky 28.500 28.500 28.500 43 1.79 m/h 0 %
14:00:00 clear sky 29.380 29.380 29.380 43 2.26 m/h 0 %
17:00:00 few clouds 26.590 26.590 26.590 63 1.59 m/h 0 %
20:00:00 scattered clouds 21.770 21.770 21.770 73 1.67 m/h 0 %
23:00:00 few clouds 20.560 20.560 20.560 73 2.15 m/h 0 %
30-Sep-2022 (Fri)
02:00:00 clear sky 19.800 19.800 19.800 72 2.18 m/h 0 %
05:00:00 clear sky 19.330 19.330 19.330 66 2.21 m/h 0 %
08:00:00 clear sky 24.260 24.260 24.260 54 0.78 m/h 0 %
11:00:00 clear sky 28.820 28.820 28.820 47 2 m/h 0 %
14:00:00 clear sky 29.610 29.610 29.610 45 2.44 m/h 0 %
17:00:00 few clouds 26.950 26.950 26.950 62 1.54 m/h 0 %
20:00:00 clear sky 22.220 22.220 22.220 72 1.41 m/h 0 %
23:00:00 clear sky 20.940 20.940 20.940 75 2.08 m/h 0 %
01-Oct-2022 (Sat)
02:00:00 clear sky 20.120 20.120 20.120 76 2.38 m/h 0 %
05:00:00 few clouds 20.550 20.550 20.550 69 2.28 m/h 0 %
08:00:00 scattered clouds 24.640 24.640 24.640 55 0.67 m/h 0 %

Famous Cities (61)